sensor_id;sensor_type;location;lat;lon;timestamp;P1;durP1;ratioP1;P2;durP2;ratioP2
71916;SDS011;59793;46.506;6.674;2022-08-05T00:00:18;3.42;;;1.20;;
71916;SDS011;59793;46.506;6.674;2022-08-05T00:05:09;2.20;;;1.10;;
71916;SDS011;59793;46.506;6.674;2022-08-05T00:07:35;3.47;;;1.40;;
71916;SDS011;59793;46.506;6.674;2022-08-05T00:10:00;4.35;;;1.40;;
71916;SDS011;59793;46.506;6.674;2022-08-05T00:12:25;1.73;;;1.10;;
71916;SDS011;59793;46.506;6.674;2022-08-05T00:14:51;6.87;;;1.37;;
71916;SDS011;59793;46.506;6.674;2022-08-05T00:17:16;2.17;;;1.30;;
71916;SDS011;59793;46.506;6.674;2022-08-05T00:19:42;3.87;;;1.10;;
71916;SDS011;59793;46.506;6.674;2022-08-05T00:22:07;1.93;;;1.27;;
71916;SDS011;59793;46.506;6.674;2022-08-05T00:24:33;2.17;;;1.05;;
71916;SDS011;59793;46.506;6.674;2022-08-05T00:26:58;2.38;;;1.05;;
71916;SDS011;59793;46.506;6.674;2022-08-05T00:29:24;2.22;;;1.20;;
71916;SDS011;59793;46.506;6.674;2022-08-05T00:31:50;2.83;;;1.38;;
71916;SDS011;59793;46.506;6.674;2022-08-05T00:34:16;3.95;;;1.30;;
71916;SDS011;59793;46.506;6.674;2022-08-05T00:36:41;4.55;;;1.20;;
71916;SDS011;59793;46.506;6.674;2022-08-05T00:39:07;2.75;;;1.48;;
71916;SDS011;59793;46.506;6.674;2022-08-05T00:41:33;2.13;;;1.23;;
71916;SDS011;59793;46.506;6.674;2022-08-05T00:43:59;2.88;;;1.55;;
71916;SDS011;59793;46.506;6.674;2022-08-05T00:46:25;3.92;;;1.30;;
71916;SDS011;59793;46.506;6.674;2022-08-05T00:48:51;3.78;;;1.85;;
71916;SDS011;59793;46.506;6.674;2022-08-05T00:51:18;3.60;;;1.65;;
71916;SDS011;59793;46.506;6.674;2022-08-05T00:53:44;2.00;;;1.23;;
71916;SDS011;59793;46.506;6.674;2022-08-05T00:56:10;4.93;;;1.48;;
71916;SDS011;59793;46.506;6.674;2022-08-05T00:58:35;2.28;;;1.60;;
71916;SDS011;59793;46.506;6.674;2022-08-05T01:01:01;1.83;;;1.10;;
71916;SDS011;59793;46.506;6.674;2022-08-05T01:03:26;1.77;;;1.30;;
71916;SDS011;59793;46.506;6.674;2022-08-05T01:05:53;6.38;;;1.63;;
71916;SDS011;59793;46.506;6.674;2022-08-05T01:08:19;3.70;;;1.25;;
71916;SDS011;59793;46.506;6.674;2022-08-05T01:16:02;1.88;;;1.40;;
71916;SDS011;59793;46.506;6.674;2022-08-05T01:18:33;1.52;;;1.33;;
71916;SDS011;59793;46.506;6.674;2022-08-05T01:29:21;3.17;;;1.30;;
71916;SDS011;59793;46.506;6.674;2022-08-05T01:31:51;4.68;;;1.40;;
71916;SDS011;59793;46.506;6.674;2022-08-05T01:34:20;5.25;;;1.52;;
71916;SDS011;59793;46.506;6.674;2022-08-05T01:36:49;4.00;;;1.40;;
71916;SDS011;59793;46.506;6.674;2022-08-05T01:39:20;1.95;;;1.27;;
71916;SDS011;59793;46.506;6.674;2022-08-05T01:41:46;4.55;;;1.92;;
71916;SDS011;59793;46.506;6.674;2022-08-05T01:44:14;4.50;;;1.50;;
71916;SDS011;59793;46.506;6.674;2022-08-05T01:46:40;6.53;;;1.70;;
71916;SDS011;59793;46.506;6.674;2022-08-05T01:49:09;1.98;;;1.40;;
71916;SDS011;59793;46.506;6.674;2022-08-05T01:51:38;4.32;;;1.52;;
71916;SDS011;59793;46.506;6.674;2022-08-05T01:54:04;2.30;;;1.35;;
71916;SDS011;59793;46.506;6.674;2022-08-05T01:56:34;4.53;;;1.65;;
71916;SDS011;59793;46.506;6.674;2022-08-05T01:59:04;4.60;;;1.38;;
71916;SDS011;59793;46.506;6.674;2022-08-05T02:01:32;3.38;;;1.50;;
71916;SDS011;59793;46.506;6.674;2022-08-05T02:03:58;2.88;;;1.67;;
71916;SDS011;59793;46.506;6.674;2022-08-05T02:06:25;2.78;;;1.55;;
71916;SDS011;59793;46.506;6.674;2022-08-05T02:08:51;3.53;;;1.70;;
71916;SDS011;59793;46.506;6.674;2022-08-05T02:11:17;3.58;;;1.83;;
71916;SDS011;59793;46.506;6.674;2022-08-05T02:13:53;5.32;;;1.52;;
71916;SDS011;59793;46.506;6.674;2022-08-05T02:16:29;5.85;;;1.42;;
71916;SDS011;59793;46.506;6.674;2022-08-05T02:19:00;5.47;;;1.88;;
71916;SDS011;59793;46.506;6.674;2022-08-05T02:21:32;1.58;;;1.23;;
71916;SDS011;59793;46.506;6.674;2022-08-05T02:24:03;2.00;;;1.30;;
71916;SDS011;59793;46.506;6.674;2022-08-05T02:26:34;2.38;;;1.40;;
71916;SDS011;59793;46.506;6.674;2022-08-05T02:29:03;3.05;;;1.70;;
71916;SDS011;59793;46.506;6.674;2022-08-05T02:31:32;4.13;;;1.77;;
71916;SDS011;59793;46.506;6.674;2022-08-05T02:34:09;4.43;;;1.33;;
71916;SDS011;59793;46.506;6.674;2022-08-05T02:36:40;5.90;;;1.50;;
71916;SDS011;59793;46.506;6.674;2022-08-05T02:39:07;6.22;;;1.80;;
71916;SDS011;59793;46.506;6.674;2022-08-05T02:41:34;1.92;;;1.35;;
71916;SDS011;59793;46.506;6.674;2022-08-05T02:44:00;6.43;;;1.50;;
71916;SDS011;59793;46.506;6.674;2022-08-05T02:46:30;3.42;;;1.30;;
71916;SDS011;59793;46.506;6.674;2022-08-05T02:51:22;2.65;;;1.58;;
71916;SDS011;59793;46.506;6.674;2022-08-05T02:53:49;6.03;;;2.05;;
71916;SDS011;59793;46.506;6.674;2022-08-05T02:56:15;2.53;;;1.60;;
71916;SDS011;59793;46.506;6.674;2022-08-05T03:01:16;4.97;;;1.42;;
71916;SDS011;59793;46.506;6.674;2022-08-05T03:03:43;2.17;;;1.70;;
71916;SDS011;59793;46.506;6.674;2022-08-05T03:06:14;3.35;;;1.80;;
71916;SDS011;59793;46.506;6.674;2022-08-05T03:08:41;3.72;;;1.77;;
71916;SDS011;59793;46.506;6.674;2022-08-05T03:11:20;4.22;;;1.88;;
71916;SDS011;59793;46.506;6.674;2022-08-05T03:13:47;4.68;;;1.67;;
71916;SDS011;59793;46.506;6.674;2022-08-05T03:18:39;3.20;;;1.60;;
71916;SDS011;59793;46.506;6.674;2022-08-05T03:21:05;3.92;;;1.73;;
71916;SDS011;59793;46.506;6.674;2022-08-05T03:23:31;3.08;;;1.55;;
71916;SDS011;59793;46.506;6.674;2022-08-05T03:25:57;2.78;;;1.85;;
71916;SDS011;59793;46.506;6.674;2022-08-05T03:28:23;4.83;;;1.70;;
71916;SDS011;59793;46.506;6.674;2022-08-05T03:30:49;2.72;;;1.60;;
71916;SDS011;59793;46.506;6.674;2022-08-05T03:33:14;2.20;;;1.50;;
71916;SDS011;59793;46.506;6.674;2022-08-05T03:35:41;3.90;;;1.80;;
71916;SDS011;59793;46.506;6.674;2022-08-05T03:38:10;6.80;;;2.05;;
71916;SDS011;59793;46.506;6.674;2022-08-05T03:40:43;6.55;;;1.60;;
71916;SDS011;59793;46.506;6.674;2022-08-05T03:43:09;7.53;;;1.60;;
71916;SDS011;59793;46.506;6.674;2022-08-05T03:45:35;1.85;;;1.55;;
71916;SDS011;59793;46.506;6.674;2022-08-05T03:48:00;5.27;;;1.90;;
71916;SDS011;59793;46.506;6.674;2022-08-05T03:56:38;2.38;;;1.33;;
71916;SDS011;59793;46.506;6.674;2022-08-05T03:59:05;3.10;;;1.85;;
71916;SDS011;59793;46.506;6.674;2022-08-05T04:01:34;3.85;;;1.60;;
71916;SDS011;59793;46.506;6.674;2022-08-05T04:04:03;1.75;;;1.38;;
71916;SDS011;59793;46.506;6.674;2022-08-05T04:06:29;2.97;;;1.75;;
71916;SDS011;59793;46.506;6.674;2022-08-05T04:08:57;2.67;;;1.83;;
71916;SDS011;59793;46.506;6.674;2022-08-05T04:11:23;2.83;;;2.03;;
71916;SDS011;59793;46.506;6.674;2022-08-05T04:13:49;6.32;;;2.05;;
71916;SDS011;59793;46.506;6.674;2022-08-05T04:16:15;6.40;;;1.70;;
71916;SDS011;59793;46.506;6.674;2022-08-05T04:18:40;20.40;;;2.45;;
71916;SDS011;59793;46.506;6.674;2022-08-05T04:21:09;3.70;;;1.92;;
71916;SDS011;59793;46.506;6.674;2022-08-05T04:23:35;4.30;;;1.97;;
71916;SDS011;59793;46.506;6.674;2022-08-05T04:26:01;3.33;;;1.90;;
71916;SDS011;59793;46.506;6.674;2022-08-05T04:28:27;3.15;;;1.77;;
71916;SDS011;59793;46.506;6.674;2022-08-05T04:30:52;4.20;;;1.87;;
71916;SDS011;59793;46.506;6.674;2022-08-05T04:33:17;4.27;;;1.97;;
71916;SDS011;59793;46.506;6.674;2022-08-05T04:35:43;3.87;;;1.80;;
71916;SDS011;59793;46.506;6.674;2022-08-05T04:38:08;5.20;;;1.70;;
71916;SDS011;59793;46.506;6.674;2022-08-05T04:40:37;3.33;;;1.80;;
71916;SDS011;59793;46.506;6.674;2022-08-05T04:43:04;5.72;;;1.85;;
71916;SDS011;59793;46.506;6.674;2022-08-05T04:45:29;10.13;;;1.50;;
71916;SDS011;59793;46.506;6.674;2022-08-05T04:48:28;4.93;;;1.95;;
71916;SDS011;59793;46.506;6.674;2022-08-05T04:50:47;2.80;;;1.83;;
71916;SDS011;59793;46.506;6.674;2022-08-05T04:53:17;3.22;;;1.70;;
71916;SDS011;59793;46.506;6.674;2022-08-05T04:55:42;3.95;;;1.67;;
71916;SDS011;59793;46.506;6.674;2022-08-05T04:58:11;4.45;;;1.50;;
71916;SDS011;59793;46.506;6.674;2022-08-05T05:00:39;6.78;;;2.13;;
71916;SDS011;59793;46.506;6.674;2022-08-05T05:03:05;7.40;;;1.92;;
71916;SDS011;59793;46.506;6.674;2022-08-05T05:05:32;4.25;;;1.65;;
71916;SDS011;59793;46.506;6.674;2022-08-05T05:10:31;5.95;;;1.92;;
71916;SDS011;59793;46.506;6.674;2022-08-05T05:13:01;5.45;;;1.98;;
71916;SDS011;59793;46.506;6.674;2022-08-05T05:15:26;2.60;;;2.00;;
71916;SDS011;59793;46.506;6.674;2022-08-05T05:17:53;3.35;;;1.80;;
71916;SDS011;59793;46.506;6.674;2022-08-05T05:20:18;4.43;;;1.73;;
71916;SDS011;59793;46.506;6.674;2022-08-05T05:22:44;5.80;;;1.80;;
71916;SDS011;59793;46.506;6.674;2022-08-05T05:25:09;3.23;;;2.00;;
71916;SDS011;59793;46.506;6.674;2022-08-05T05:27:36;3.40;;;1.60;;
71916;SDS011;59793;46.506;6.674;2022-08-05T05:30:03;2.33;;;1.88;;
71916;SDS011;59793;46.506;6.674;2022-08-05T05:32:30;3.03;;;1.48;;
71916;SDS011;59793;46.506;6.674;2022-08-05T05:34:56;4.17;;;2.17;;
71916;SDS011;59793;46.506;6.674;2022-08-05T05:37:21;2.50;;;1.55;;
71916;SDS011;59793;46.506;6.674;2022-08-05T05:39:47;5.03;;;1.70;;
71916;SDS011;59793;46.506;6.674;2022-08-05T05:42:12;3.43;;;1.70;;
71916;SDS011;59793;46.506;6.674;2022-08-05T05:44:37;3.07;;;1.63;;
71916;SDS011;59793;46.506;6.674;2022-08-05T05:47:03;4.20;;;1.60;;
71916;SDS011;59793;46.506;6.674;2022-08-05T05:49:28;3.30;;;1.80;;
71916;SDS011;59793;46.506;6.674;2022-08-05T05:51:54;4.90;;;1.77;;
71916;SDS011;59793;46.506;6.674;2022-08-05T05:54:21;3.85;;;1.95;;
71916;SDS011;59793;46.506;6.674;2022-08-05T05:56:46;2.33;;;1.80;;
71916;SDS011;59793;46.506;6.674;2022-08-05T05:59:11;3.90;;;2.10;;
71916;SDS011;59793;46.506;6.674;2022-08-05T06:01:38;3.47;;;1.73;;
71916;SDS011;59793;46.506;6.674;2022-08-05T06:06:35;4.20;;;2.40;;
71916;SDS011;59793;46.506;6.674;2022-08-05T06:09:01;4.30;;;1.70;;
71916;SDS011;59793;46.506;6.674;2022-08-05T06:11:28;2.25;;;1.45;;
71916;SDS011;59793;46.506;6.674;2022-08-05T06:13:53;2.00;;;1.67;;
71916;SDS011;59793;46.506;6.674;2022-08-05T06:16:19;3.27;;;1.83;;
71916;SDS011;59793;46.506;6.674;2022-08-05T06:18:44;2.43;;;1.40;;
71916;SDS011;59793;46.506;6.674;2022-08-05T06:21:10;2.67;;;1.40;;
71916;SDS011;59793;46.506;6.674;2022-08-05T06:23:35;3.10;;;1.52;;
71916;SDS011;59793;46.506;6.674;2022-08-05T06:26:01;3.43;;;1.93;;
71916;SDS011;59793;46.506;6.674;2022-08-05T06:28:27;4.47;;;2.38;;
71916;SDS011;59793;46.506;6.674;2022-08-05T06:30:52;4.03;;;1.60;;
71916;SDS011;59793;46.506;6.674;2022-08-05T06:33:18;3.50;;;2.27;;
71916;SDS011;59793;46.506;6.674;2022-08-05T06:35:48;2.87;;;1.60;;
71916;SDS011;59793;46.506;6.674;2022-08-05T06:38:14;6.82;;;1.92;;
71916;SDS011;59793;46.506;6.674;2022-08-05T06:40:43;5.53;;;1.47;;
71916;SDS011;59793;46.506;6.674;2022-08-05T06:43:08;3.33;;;1.90;;
71916;SDS011;59793;46.506;6.674;2022-08-05T06:45:34;4.32;;;1.77;;
71916;SDS011;59793;46.506;6.674;2022-08-05T06:47:59;3.50;;;1.70;;
71916;SDS011;59793;46.506;6.674;2022-08-05T06:50:25;3.20;;;1.60;;
71916;SDS011;59793;46.506;6.674;2022-08-05T06:52:51;3.85;;;1.83;;
71916;SDS011;59793;46.506;6.674;2022-08-05T06:55:17;8.25;;;2.50;;
71916;SDS011;59793;46.506;6.674;2022-08-05T06:57:43;2.78;;;1.80;;
71916;SDS011;59793;46.506;6.674;2022-08-05T07:00:08;8.50;;;1.83;;
71916;SDS011;59793;46.506;6.674;2022-08-05T07:02:41;2.17;;;1.67;;
71916;SDS011;59793;46.506;6.674;2022-08-05T07:05:08;1.95;;;1.67;;
71916;SDS011;59793;46.506;6.674;2022-08-05T07:15:18;4.90;;;2.28;;
71916;SDS011;59793;46.506;6.674;2022-08-05T07:18:04;3.55;;;2.00;;
71916;SDS011;59793;46.506;6.674;2022-08-05T07:20:29;2.40;;;1.73;;
71916;SDS011;59793;46.506;6.674;2022-08-05T07:22:55;5.40;;;2.00;;
71916;SDS011;59793;46.506;6.674;2022-08-05T07:25:20;3.50;;;1.90;;
71916;SDS011;59793;46.506;6.674;2022-08-05T07:27:47;5.13;;;2.40;;
71916;SDS011;59793;46.506;6.674;2022-08-05T07:30:13;2.90;;;2.30;;
71916;SDS011;59793;46.506;6.674;2022-08-05T07:32:38;10.85;;;2.58;;
71916;SDS011;59793;46.506;6.674;2022-08-05T07:35:07;6.07;;;2.40;;
71916;SDS011;59793;46.506;6.674;2022-08-05T07:37:33;3.40;;;2.20;;
71916;SDS011;59793;46.506;6.674;2022-08-05T07:39:59;5.35;;;2.47;;
71916;SDS011;59793;46.506;6.674;2022-08-05T07:42:25;4.37;;;2.73;;
71916;SDS011;59793;46.506;6.674;2022-08-05T07:44:54;4.97;;;3.08;;
71916;SDS011;59793;46.506;6.674;2022-08-05T07:47:20;6.22;;;2.85;;
71916;SDS011;59793;46.506;6.674;2022-08-05T07:49:45;4.75;;;2.90;;
71916;SDS011;59793;46.506;6.674;2022-08-05T07:52:11;3.33;;;2.65;;
71916;SDS011;59793;46.506;6.674;2022-08-05T07:54:36;3.92;;;2.78;;
71916;SDS011;59793;46.506;6.674;2022-08-05T07:57:02;5.87;;;2.60;;
71916;SDS011;59793;46.506;6.674;2022-08-05T07:59:28;3.55;;;2.83;;
71916;SDS011;59793;46.506;6.674;2022-08-05T08:01:54;4.03;;;2.63;;
71916;SDS011;59793;46.506;6.674;2022-08-05T08:04:19;5.85;;;2.55;;
71916;SDS011;59793;46.506;6.674;2022-08-05T08:06:45;5.32;;;2.45;;
71916;SDS011;59793;46.506;6.674;2022-08-05T08:09:10;4.23;;;2.90;;
71916;SDS011;59793;46.506;6.674;2022-08-05T08:11:36;3.97;;;2.22;;
71916;SDS011;59793;46.506;6.674;2022-08-05T08:14:01;4.18;;;2.60;;
71916;SDS011;59793;46.506;6.674;2022-08-05T08:16:28;3.00;;;2.20;;
71916;SDS011;59793;46.506;6.674;2022-08-05T08:18:54;5.22;;;2.63;;
71916;SDS011;59793;46.506;6.674;2022-08-05T08:21:22;6.60;;;2.75;;
71916;SDS011;59793;46.506;6.674;2022-08-05T08:23:48;3.80;;;2.65;;
71916;SDS011;59793;46.506;6.674;2022-08-05T08:26:13;3.17;;;2.50;;
71916;SDS011;59793;46.506;6.674;2022-08-05T08:28:40;3.85;;;2.35;;
71916;SDS011;59793;46.506;6.674;2022-08-05T08:31:06;3.47;;;2.60;;
71916;SDS011;59793;46.506;6.674;2022-08-05T08:33:31;8.82;;;2.78;;
71916;SDS011;59793;46.506;6.674;2022-08-05T08:35:57;7.25;;;3.00;;
71916;SDS011;59793;46.506;6.674;2022-08-05T08:38:22;3.05;;;2.35;;
71916;SDS011;59793;46.506;6.674;2022-08-05T08:40:49;5.03;;;2.60;;
71916;SDS011;59793;46.506;6.674;2022-08-05T08:43:15;4.25;;;2.38;;
71916;SDS011;59793;46.506;6.674;2022-08-05T08:48:07;5.80;;;2.92;;
71916;SDS011;59793;46.506;6.674;2022-08-05T08:50:36;5.93;;;2.47;;
71916;SDS011;59793;46.506;6.674;2022-08-05T08:53:05;5.45;;;2.75;;
71916;SDS011;59793;46.506;6.674;2022-08-05T08:55:34;3.05;;;2.20;;
71916;SDS011;59793;46.506;6.674;2022-08-05T08:58:00;4.07;;;2.40;;
71916;SDS011;59793;46.506;6.674;2022-08-05T09:00:28;2.78;;;2.10;;
71916;SDS011;59793;46.506;6.674;2022-08-05T09:02:54;7.20;;;2.33;;
71916;SDS011;59793;46.506;6.674;2022-08-05T09:05:21;4.47;;;2.45;;
71916;SDS011;59793;46.506;6.674;2022-08-05T09:07:49;4.70;;;2.28;;
71916;SDS011;59793;46.506;6.674;2022-08-05T09:10:16;3.20;;;2.30;;
71916;SDS011;59793;46.506;6.674;2022-08-05T09:12:42;3.38;;;2.72;;
71916;SDS011;59793;46.506;6.674;2022-08-05T09:15:08;6.95;;;2.22;;
71916;SDS011;59793;46.506;6.674;2022-08-05T09:20:00;5.72;;;2.78;;
71916;SDS011;59793;46.506;6.674;2022-08-05T09:22:26;4.90;;;2.72;;
71916;SDS011;59793;46.506;6.674;2022-08-05T09:24:58;3.38;;;2.28;;
71916;SDS011;59793;46.506;6.674;2022-08-05T09:27:32;7.47;;;2.83;;
71916;SDS011;59793;46.506;6.674;2022-08-05T09:29:58;2.90;;;2.30;;
71916;SDS011;59793;46.506;6.674;2022-08-05T09:32:37;6.13;;;2.20;;
71916;SDS011;59793;46.506;6.674;2022-08-05T09:35:09;6.93;;;2.00;;
71916;SDS011;59793;46.506;6.674;2022-08-05T09:37:36;4.47;;;2.35;;
71916;SDS011;59793;46.506;6.674;2022-08-05T09:42:37;4.50;;;2.33;;
71916;SDS011;59793;46.506;6.674;2022-08-05T09:45:07;3.55;;;2.67;;
71916;SDS011;59793;46.506;6.674;2022-08-05T09:47:33;2.90;;;2.38;;
71916;SDS011;59793;46.506;6.674;2022-08-05T09:50:04;7.22;;;1.90;;
71916;SDS011;59793;46.506;6.674;2022-08-05T09:57:36;6.53;;;2.50;;
71916;SDS011;59793;46.506;6.674;2022-08-05T10:02:40;2.75;;;1.83;;
71916;SDS011;59793;46.506;6.674;2022-08-05T10:05:17;3.15;;;2.17;;
71916;SDS011;59793;46.506;6.674;2022-08-05T10:07:49;4.72;;;2.15;;
71916;SDS011;59793;46.506;6.674;2022-08-05T10:10:20;2.90;;;1.80;;
71916;SDS011;59793;46.506;6.674;2022-08-05T10:12:52;5.82;;;2.03;;
71916;SDS011;59793;46.506;6.674;2022-08-05T10:15:29;4.07;;;1.92;;
71916;SDS011;59793;46.506;6.674;2022-08-05T10:20:50;4.82;;;2.20;;
71916;SDS011;59793;46.506;6.674;2022-08-05T10:23:25;4.40;;;2.33;;
71916;SDS011;59793;46.506;6.674;2022-08-05T10:25:50;2.25;;;1.80;;
71916;SDS011;59793;46.506;6.674;2022-08-05T10:30:43;3.00;;;2.13;;
71916;SDS011;59793;46.506;6.674;2022-08-05T10:33:18;13.95;;;3.00;;
71916;SDS011;59793;46.506;6.674;2022-08-05T10:35:44;5.60;;;2.58;;
71916;SDS011;59793;46.506;6.674;2022-08-05T10:43:23;4.97;;;2.40;;
71916;SDS011;59793;46.506;6.674;2022-08-05T10:46:01;5.43;;;2.22;;
71916;SDS011;59793;46.506;6.674;2022-08-05T10:48:38;1.92;;;1.67;;
71916;SDS011;59793;46.506;6.674;2022-08-05T10:51:13;4.22;;;2.08;;
71916;SDS011;59793;46.506;6.674;2022-08-05T10:53:58;4.80;;;3.15;;
71916;SDS011;59793;46.506;6.674;2022-08-05T10:56:28;2.85;;;2.30;;
71916;SDS011;59793;46.506;6.674;2022-08-05T10:59:07;4.65;;;2.20;;
71916;SDS011;59793;46.506;6.674;2022-08-05T11:06:32;6.13;;;2.00;;
71916;SDS011;59793;46.506;6.674;2022-08-05T11:09:17;4.78;;;2.10;;
71916;SDS011;59793;46.506;6.674;2022-08-05T11:11:47;4.00;;;2.35;;
71916;SDS011;59793;46.506;6.674;2022-08-05T11:14:22;2.92;;;1.80;;
71916;SDS011;59793;46.506;6.674;2022-08-05T11:19:53;4.30;;;1.98;;
71916;SDS011;59793;46.506;6.674;2022-08-05T11:33:29;3.03;;;1.63;;
71916;SDS011;59793;46.506;6.674;2022-08-05T11:35:56;3.83;;;1.88;;
71916;SDS011;59793;46.506;6.674;2022-08-05T11:41:19;3.83;;;2.28;;
71916;SDS011;59793;46.506;6.674;2022-08-05T11:48:54;6.40;;;2.33;;
71916;SDS011;59793;46.506;6.674;2022-08-05T11:51:20;3.97;;;2.22;;
71916;SDS011;59793;46.506;6.674;2022-08-05T11:53:46;4.40;;;2.42;;
71916;SDS011;59793;46.506;6.674;2022-08-05T11:56:13;3.92;;;2.13;;
71916;SDS011;59793;46.506;6.674;2022-08-05T11:58:40;3.03;;;1.90;;
71916;SDS011;59793;46.506;6.674;2022-08-05T12:01:13;8.70;;;2.50;;
71916;SDS011;59793;46.506;6.674;2022-08-05T12:03:58;2.53;;;1.95;;
71916;SDS011;59793;46.506;6.674;2022-08-05T12:06:25;4.68;;;2.08;;
71916;SDS011;59793;46.506;6.674;2022-08-05T12:08:58;2.17;;;1.60;;
71916;SDS011;59793;46.506;6.674;2022-08-05T12:11:27;3.35;;;2.30;;
71916;SDS011;59793;46.506;6.674;2022-08-05T12:14:04;4.47;;;2.43;;
71916;SDS011;59793;46.506;6.674;2022-08-05T12:16:36;5.85;;;2.22;;
71916;SDS011;59793;46.506;6.674;2022-08-05T12:19:04;2.50;;;2.28;;
71916;SDS011;59793;46.506;6.674;2022-08-05T12:21:40;3.42;;;2.00;;
71916;SDS011;59793;46.506;6.674;2022-08-05T12:24:15;3.22;;;2.10;;
71916;SDS011;59793;46.506;6.674;2022-08-05T12:26:50;4.13;;;1.80;;
71916;SDS011;59793;46.506;6.674;2022-08-05T12:29:18;2.88;;;1.85;;
71916;SDS011;59793;46.506;6.674;2022-08-05T12:31:49;4.07;;;1.90;;
71916;SDS011;59793;46.506;6.674;2022-08-05T12:34:16;2.92;;;2.05;;
71916;SDS011;59793;46.506;6.674;2022-08-05T12:36:43;10.45;;;2.30;;
71916;SDS011;59793;46.506;6.674;2022-08-05T12:39:10;2.75;;;2.15;;
71916;SDS011;59793;46.506;6.674;2022-08-05T12:41:36;2.30;;;2.00;;
71916;SDS011;59793;46.506;6.674;2022-08-05T12:44:04;4.95;;;1.90;;
71916;SDS011;59793;46.506;6.674;2022-08-05T12:46:40;7.15;;;2.25;;
71916;SDS011;59793;46.506;6.674;2022-08-05T12:49:10;6.15;;;1.98;;
71916;SDS011;59793;46.506;6.674;2022-08-05T12:51:52;2.63;;;1.90;;
71916;SDS011;59793;46.506;6.674;2022-08-05T12:56:57;3.75;;;1.85;;
71916;SDS011;59793;46.506;6.674;2022-08-05T12:59:29;2.53;;;1.70;;
71916;SDS011;59793;46.506;6.674;2022-08-05T13:04:30;7.43;;;1.83;;
71916;SDS011;59793;46.506;6.674;2022-08-05T13:06:58;5.60;;;1.95;;
71916;SDS011;59793;46.506;6.674;2022-08-05T13:09:25;2.45;;;1.75;;
71916;SDS011;59793;46.506;6.674;2022-08-05T13:11:54;4.93;;;2.08;;
71916;SDS011;59793;46.506;6.674;2022-08-05T13:14:25;28.60;;;2.85;;
71916;SDS011;59793;46.506;6.674;2022-08-05T13:16:52;3.33;;;1.90;;
71916;SDS011;59793;46.506;6.674;2022-08-05T13:19:21;3.90;;;1.98;;
71916;SDS011;59793;46.506;6.674;2022-08-05T13:21:48;3.15;;;1.80;;
71916;SDS011;59793;46.506;6.674;2022-08-05T13:24:13;5.80;;;2.05;;
71916;SDS011;59793;46.506;6.674;2022-08-05T13:26:41;3.35;;;1.60;;
71916;SDS011;59793;46.506;6.674;2022-08-05T13:29:08;2.80;;;2.08;;
71916;SDS011;59793;46.506;6.674;2022-08-05T13:31:34;3.05;;;1.77;;
71916;SDS011;59793;46.506;6.674;2022-08-05T13:34:00;4.10;;;1.92;;
71916;SDS011;59793;46.506;6.674;2022-08-05T13:36:26;3.80;;;1.98;;
71916;SDS011;59793;46.506;6.674;2022-08-05T13:38:52;3.95;;;1.67;;
71916;SDS011;59793;46.506;6.674;2022-08-05T13:41:18;3.33;;;1.90;;
71916;SDS011;59793;46.506;6.674;2022-08-05T13:43:44;4.18;;;1.85;;
71916;SDS011;59793;46.506;6.674;2022-08-05T13:46:12;6.18;;;2.20;;
71916;SDS011;59793;46.506;6.674;2022-08-05T13:48:39;3.35;;;2.03;;
71916;SDS011;59793;46.506;6.674;2022-08-05T13:51:09;2.15;;;1.73;;
71916;SDS011;59793;46.506;6.674;2022-08-05T13:53:35;4.10;;;1.90;;
71916;SDS011;59793;46.506;6.674;2022-08-05T13:56:01;8.55;;;2.15;;
71916;SDS011;59793;46.506;6.674;2022-08-05T13:58:28;4.05;;;2.03;;
71916;SDS011;59793;46.506;6.674;2022-08-05T14:00:53;2.90;;;1.80;;
71916;SDS011;59793;46.506;6.674;2022-08-05T14:03:19;4.20;;;2.10;;
71916;SDS011;59793;46.506;6.674;2022-08-05T14:05:45;4.90;;;1.92;;
71916;SDS011;59793;46.506;6.674;2022-08-05T14:08:10;11.45;;;3.42;;
71916;SDS011;59793;46.506;6.674;2022-08-05T14:10:36;2.55;;;1.88;;
71916;SDS011;59793;46.506;6.674;2022-08-05T14:13:02;5.50;;;1.95;;
71916;SDS011;59793;46.506;6.674;2022-08-05T14:15:29;3.53;;;2.03;;
71916;SDS011;59793;46.506;6.674;2022-08-05T14:17:55;7.40;;;2.20;;
71916;SDS011;59793;46.506;6.674;2022-08-05T14:20:20;5.28;;;1.90;;
71916;SDS011;59793;46.506;6.674;2022-08-05T14:22:46;3.35;;;2.10;;
71916;SDS011;59793;46.506;6.674;2022-08-05T14:25:14;4.78;;;1.83;;
71916;SDS011;59793;46.506;6.674;2022-08-05T14:27:42;5.38;;;1.70;;
71916;SDS011;59793;46.506;6.674;2022-08-05T14:30:08;6.60;;;2.20;;
71916;SDS011;59793;46.506;6.674;2022-08-05T14:32:33;5.75;;;2.15;;
71916;SDS011;59793;46.506;6.674;2022-08-05T14:35:00;6.05;;;2.20;;
71916;SDS011;59793;46.506;6.674;2022-08-05T14:37:26;3.45;;;2.05;;
71916;SDS011;59793;46.506;6.674;2022-08-05T14:39:58;2.53;;;1.50;;
71916;SDS011;59793;46.506;6.674;2022-08-05T14:42:34;5.88;;;1.80;;
71916;SDS011;59793;46.506;6.674;2022-08-05T14:45:00;6.32;;;2.30;;
71916;SDS011;59793;46.506;6.674;2022-08-05T14:47:26;4.65;;;2.33;;
71916;SDS011;59793;46.506;6.674;2022-08-05T14:49:51;3.30;;;2.00;;
71916;SDS011;59793;46.506;6.674;2022-08-05T14:52:17;6.45;;;2.20;;
71916;SDS011;59793;46.506;6.674;2022-08-05T14:54:42;5.00;;;1.70;;
71916;SDS011;59793;46.506;6.674;2022-08-05T14:57:09;6.63;;;2.78;;
71916;SDS011;59793;46.506;6.674;2022-08-05T14:59:34;4.30;;;1.90;;
71916;SDS011;59793;46.506;6.674;2022-08-05T15:01:59;4.18;;;2.20;;
71916;SDS011;59793;46.506;6.674;2022-08-05T15:04:25;12.45;;;2.00;;
71916;SDS011;59793;46.506;6.674;2022-08-05T15:06:51;2.58;;;2.20;;
71916;SDS011;59793;46.506;6.674;2022-08-05T15:09:20;5.00;;;2.17;;
71916;SDS011;59793;46.506;6.674;2022-08-05T15:11:45;6.18;;;2.20;;
71916;SDS011;59793;46.506;6.674;2022-08-05T15:14:12;6.50;;;2.38;;
71916;SDS011;59793;46.506;6.674;2022-08-05T15:16:39;6.38;;;2.15;;
71916;SDS011;59793;46.506;6.674;2022-08-05T15:19:05;6.93;;;1.90;;
71916;SDS011;59793;46.506;6.674;2022-08-05T15:21:32;4.68;;;2.38;;
71916;SDS011;59793;46.506;6.674;2022-08-05T15:23:58;7.57;;;1.88;;
71916;SDS011;59793;46.506;6.674;2022-08-05T15:26:24;4.32;;;1.80;;
71916;SDS011;59793;46.506;6.674;2022-08-05T15:28:49;6.38;;;2.97;;
71916;SDS011;59793;46.506;6.674;2022-08-05T15:31:36;3.90;;;2.33;;
71916;SDS011;59793;46.506;6.674;2022-08-05T15:34:01;5.03;;;1.88;;
71916;SDS011;59793;46.506;6.674;2022-08-05T15:38:52;9.13;;;2.53;;
71916;SDS011;59793;46.506;6.674;2022-08-05T15:43:53;3.22;;;2.35;;
71916;SDS011;59793;46.506;6.674;2022-08-05T15:46:18;4.47;;;1.95;;
71916;SDS011;59793;46.506;6.674;2022-08-05T15:48:44;4.38;;;1.92;;
71916;SDS011;59793;46.506;6.674;2022-08-05T15:53:35;9.52;;;2.67;;
71916;SDS011;59793;46.506;6.674;2022-08-05T15:56:01;5.68;;;2.28;;
71916;SDS011;59793;46.506;6.674;2022-08-05T15:58:28;6.35;;;2.20;;
71916;SDS011;59793;46.506;6.674;2022-08-05T16:00:54;3.97;;;2.17;;
71916;SDS011;59793;46.506;6.674;2022-08-05T16:03:19;5.32;;;1.98;;
71916;SDS011;59793;46.506;6.674;2022-08-05T16:05:45;4.43;;;2.05;;
71916;SDS011;59793;46.506;6.674;2022-08-05T16:08:10;3.63;;;2.00;;
71916;SDS011;59793;46.506;6.674;2022-08-05T16:10:35;9.25;;;2.40;;
71916;SDS011;59793;46.506;6.674;2022-08-05T16:13:01;4.25;;;2.00;;
71916;SDS011;59793;46.506;6.674;2022-08-05T16:17:53;11.80;;;4.15;;
71916;SDS011;59793;46.506;6.674;2022-08-05T16:20:19;11.65;;;2.85;;
71916;SDS011;59793;46.506;6.674;2022-08-05T16:22:45;7.90;;;2.58;;
71916;SDS011;59793;46.506;6.674;2022-08-05T16:25:11;10.45;;;3.00;;
71916;SDS011;59793;46.506;6.674;2022-08-05T16:30:39;10.65;;;3.00;;
71916;SDS011;59793;46.506;6.674;2022-08-05T16:33:08;5.05;;;2.88;;
71916;SDS011;59793;46.506;6.674;2022-08-05T16:37:59;10.25;;;3.42;;
71916;SDS011;59793;46.506;6.674;2022-08-05T16:40:25;5.85;;;3.33;;
71916;SDS011;59793;46.506;6.674;2022-08-05T16:42:50;5.65;;;3.70;;
71916;SDS011;59793;46.506;6.674;2022-08-05T16:45:15;8.48;;;5.35;;